createdAt,value
2023-03-06T00:00:59.277Z,-1.02
2023-03-06T00:03:28.311Z,-1.00
2023-03-06T00:05:58.937Z,-1.02
2023-03-06T00:08:29.165Z,-1.00
2023-03-06T00:10:57.845Z,-1.00
2023-03-06T00:13:30.657Z,-1.00
2023-03-06T00:16:00.946Z,-1.03
2023-03-06T00:18:29.245Z,-1.05
2023-03-06T00:20:57.267Z,-1.07
2023-03-06T00:23:25.802Z,-1.06
2023-03-06T00:25:53.949Z,-1.04
2023-03-06T00:28:22.321Z,-1.08
2023-03-06T00:30:52.293Z,-1.08
2023-03-06T00:33:20.705Z,-1.08
2023-03-06T00:35:48.975Z,-1.07
2023-03-06T00:38:17.192Z,-1.09
2023-03-06T00:40:45.398Z,-1.10
2023-03-06T00:43:13.809Z,-1.11
2023-03-06T00:45:43.221Z,-1.08
2023-03-06T00:48:12.989Z,-1.07
2023-03-06T00:50:41.140Z,-1.07
2023-03-06T00:53:11.191Z,-1.08
2023-03-06T00:55:39.366Z,-1.10
2023-03-06T00:58:08.016Z,-1.10
2023-03-06T01:00:36.215Z,-1.15
2023-03-06T01:03:04.639Z,-1.19
2023-03-06T01:05:36.645Z,-1.21
2023-03-06T01:08:05.514Z,-1.24
2023-03-06T01:10:33.926Z,-1.25
2023-03-06T01:13:02.008Z,-1.25
2023-03-06T01:15:30.095Z,-1.23
2023-03-06T01:17:59.506Z,-1.24
2023-03-06T01:20:28.518Z,-1.28
2023-03-06T01:22:58.148Z,-1.26
2023-03-06T01:25:27.980Z,-1.28
2023-03-06T01:27:56.295Z,-1.35
2023-03-06T01:30:24.522Z,-1.30
2023-03-06T01:32:52.718Z,-1.33
2023-03-06T01:35:20.768Z,-1.30
2023-03-06T01:37:48.910Z,-1.26
2023-03-06T01:40:18.733Z,-1.21
2023-03-06T01:42:49.298Z,-1.18
2023-03-06T01:45:54.843Z,-1.18
2023-03-06T01:48:25.500Z,-1.16
2023-03-06T01:50:54.868Z,-1.18
2023-03-06T01:53:23.167Z,-1.23
2023-03-06T01:55:52.974Z,-1.25
2023-03-06T01:58:21.504Z,-1.25
2023-03-06T02:00:49.954Z,-1.28
2023-03-06T02:03:22.944Z,-1.30
2023-03-06T02:05:51.484Z,-1.39
2023-03-06T02:08:21.906Z,-1.53
2023-03-06T02:10:59.807Z,-1.52
2023-03-06T02:13:28.248Z,-1.40
2023-03-06T02:15:56.902Z,-1.40
2023-03-06T02:18:25.244Z,-1.40
2023-03-06T02:20:56.282Z,-1.34
2023-03-06T02:23:33.502Z,-1.45
2023-03-06T02:26:03.403Z,-1.42
2023-03-06T02:28:31.820Z,-1.53
2023-03-06T02:31:00.359Z,-1.54
2023-03-06T02:33:30.303Z,-1.58
2023-03-06T02:36:01.357Z,-1.62
2023-03-06T02:38:33.168Z,-1.54
2023-03-06T02:41:07.929Z,-1.60
2023-03-06T02:43:39.774Z,-1.71
2023-03-06T02:46:08.722Z,-1.75
2023-03-06T02:48:36.847Z,-1.71
2023-03-06T02:51:05.358Z,-1.75
2023-03-06T02:53:33.729Z,-1.77
2023-03-06T02:56:02.079Z,-1.65
2023-03-06T02:58:31.517Z,-1.57
2023-03-06T03:01:00.897Z,-1.66
2023-03-06T03:03:30.437Z,-1.74
2023-03-06T03:05:59.511Z,-1.54
2023-03-06T03:08:31.127Z,-1.58
2023-03-06T03:11:02.776Z,-1.66
2023-03-06T03:13:39.408Z,-1.74
2023-03-06T03:16:15.551Z,-1.81
2023-03-06T03:18:47.872Z,-1.89
2023-03-06T03:21:19.125Z,-1.80
2023-03-06T03:23:49.253Z,-2.00
2023-03-06T03:26:19.627Z,-2.24
2023-03-06T03:29:15.552Z,-2.44
2023-03-06T03:31:44.115Z,-2.68
2023-03-06T03:34:12.175Z,-2.77
2023-03-06T03:36:41.943Z,-2.87
2023-03-06T03:39:11.852Z,-2.82
2023-03-06T03:41:40.557Z,-3.00
2023-03-06T03:44:10.475Z,-3.00
2023-03-06T03:46:41.116Z,-2.92
2023-03-06T03:49:14.873Z,-2.93
2023-03-06T03:51:45.536Z,-2.87
2023-03-06T03:54:13.758Z,-2.87
2023-03-06T03:56:46.130Z,-2.87
2023-03-06T03:59:21.036Z,-2.95
2023-03-06T04:02:13.528Z,-3.01
2023-03-06T04:04:53.288Z,-3.01
2023-03-06T04:07:21.733Z,-2.79
2023-03-06T04:09:50.600Z,-2.78
2023-03-06T04:12:19.488Z,-2.66
2023-03-06T04:14:48.456Z,-2.34
2023-03-06T04:17:18.223Z,-2.17
2023-03-06T04:19:46.280Z,-2.07
2023-03-06T04:22:14.699Z,-2.06
2023-03-06T04:24:43.495Z,-2.00
2023-03-06T04:27:12.023Z,-2.06
2023-03-06T04:29:40.209Z,-2.01
2023-03-06T04:32:08.765Z,-1.99
2023-03-06T04:34:38.454Z,-2.05
2023-03-06T04:37:07.889Z,-1.90
2023-03-06T04:39:35.923Z,-1.93
2023-03-06T04:42:04.195Z,-2.04
2023-03-06T04:44:32.273Z,-2.13
2023-03-06T04:47:00.638Z,-2.20
2023-03-06T04:49:28.598Z,-2.22
2023-03-06T04:51:58.095Z,-2.22
2023-03-06T04:54:26.373Z,-2.29
2023-03-06T04:56:55.152Z,-2.26
2023-03-06T04:59:23.166Z,-2.21
2023-03-06T05:01:51.412Z,-2.15
2023-03-06T05:04:19.508Z,-2.15
2023-03-06T05:06:48.029Z,-2.32
2023-03-06T05:09:17.456Z,-2.41
2023-03-06T05:11:45.670Z,-2.33
2023-03-06T05:14:14.314Z,-2.32
2023-03-06T05:16:42.357Z,-2.41
2023-03-06T05:19:10.378Z,-2.50
2023-03-06T05:21:38.595Z,-2.58
2023-03-06T05:24:07.114Z,-2.62
2023-03-06T05:26:36.787Z,-2.54
2023-03-06T05:29:05.143Z,-2.39
2023-03-06T05:31:33.544Z,-2.42
2023-03-06T05:34:01.621Z,-2.42
2023-03-06T05:36:30.064Z,-2.44
2023-03-06T05:38:58.176Z,-2.59
2023-03-06T05:41:26.211Z,-2.50
2023-03-06T05:43:57.044Z,-2.43
2023-03-06T05:46:25.425Z,-2.48
2023-03-06T05:48:57.574Z,-2.53
2023-03-06T05:51:26.745Z,-2.44
2023-03-06T05:53:55.081Z,-2.30
2023-03-06T05:56:23.532Z,-2.19
2023-03-06T05:58:51.768Z,-2.14
2023-03-06T06:01:22.805Z,-2.10
2023-03-06T06:03:51.084Z,-1.98
2023-03-06T06:06:19.409Z,-1.91
2023-03-06T06:08:47.529Z,-1.90
2023-03-06T06:11:15.742Z,-1.89
2023-03-06T06:13:44.053Z,-1.78
2023-03-06T06:16:15.765Z,-1.58
2023-03-06T06:18:45.535Z,-1.56
2023-03-06T06:21:16.014Z,-1.50
2023-03-06T06:23:44.697Z,-1.48
2023-03-06T06:26:12.763Z,-1.47
2023-03-06T06:28:41.246Z,-1.37
2023-03-06T06:31:10.573Z,-1.33
2023-03-06T06:33:38.834Z,-1.28
2023-03-06T06:36:16.370Z,-1.18
2023-03-06T06:38:44.859Z,-1.15
2023-03-06T06:44:01.984Z,-0.93
2023-03-06T06:47:20.422Z,-0.89
2023-03-06T06:49:18.843Z,-0.78
2023-03-06T06:51:48.892Z,-0.66
2023-03-06T06:54:18.734Z,-0.59
2023-03-06T06:56:47.426Z,-0.38
2023-03-06T06:59:17.395Z,-0.25
2023-03-06T07:01:46.262Z,-0.33
2023-03-06T07:04:15.340Z,-0.25
2023-03-06T07:06:44.127Z,0.05
2023-03-06T07:09:15.119Z,-0.11
2023-03-06T07:11:43.171Z,-0.09
2023-03-06T07:14:11.486Z,0.16
2023-03-06T07:16:39.863Z,0.03
2023-03-06T07:19:09.141Z,0.40
2023-03-06T07:21:37.542Z,0.52
2023-03-06T07:24:06.154Z,0.86
2023-03-06T07:26:35.867Z,0.71
2023-03-06T07:29:04.885Z,0.84
2023-03-06T07:31:33.447Z,0.87
2023-03-06T07:34:04.723Z,0.72
2023-03-06T07:36:34.316Z,0.71
2023-03-06T07:39:02.764Z,0.89
2023-03-06T07:41:30.844Z,0.95
2023-03-06T07:44:00.375Z,1.25
2023-03-06T07:46:28.825Z,1.31
2023-03-06T07:48:58.398Z,1.72
2023-03-06T07:51:26.537Z,1.94
2023-03-06T07:53:54.960Z,1.87
2023-03-06T07:56:23.115Z,1.44
2023-03-06T07:58:51.302Z,1.07
2023-03-06T08:01:24.396Z,1.05
2023-03-06T08:03:53.581Z,1.09
2023-03-06T08:06:24.914Z,0.92
2023-03-06T08:08:55.444Z,0.92
2023-03-06T08:11:25.655Z,0.89
2023-03-06T08:13:55.192Z,0.83
2023-03-06T08:16:26.277Z,0.71
2023-03-06T08:18:54.920Z,0.91
2023-03-06T08:21:25.473Z,1.05
2023-03-06T08:23:53.977Z,1.08
2023-03-06T08:26:24.506Z,1.13
2023-03-06T08:28:53.277Z,1.05
2023-03-06T08:31:31.967Z,1.23
2023-03-06T08:34:02.344Z,1.43
2023-03-06T08:36:31.556Z,1.52
2023-03-06T08:39:00.409Z,1.51
2023-03-06T08:41:28.758Z,1.45
2023-03-06T08:43:57.334Z,1.31
2023-03-06T08:46:27.958Z,1.56
2023-03-06T08:48:58.548Z,1.59
2023-03-06T08:51:28.152Z,1.86
2023-03-06T08:53:57.165Z,1.14
2023-03-06T08:56:27.778Z,0.99
2023-03-06T08:58:57.276Z,0.87
2023-03-06T09:01:27.543Z,0.90
2023-03-06T09:03:59.001Z,0.97
2023-03-06T09:06:28.928Z,1.12
2023-03-06T09:08:57.552Z,1.30
2023-03-06T09:11:27.410Z,1.33
2023-03-06T09:13:56.301Z,1.48
2023-03-06T09:16:25.288Z,1.57
2023-03-06T09:18:54.387Z,1.22
2023-03-06T09:21:25.271Z,1.41
2023-03-06T09:23:53.418Z,1.82
2023-03-06T09:26:27.999Z,2.52
2023-03-06T09:29:01.206Z,2.81
2023-03-06T09:31:30.288Z,2.99
2023-03-06T09:33:58.657Z,2.26
2023-03-06T09:36:28.079Z,1.68
2023-03-06T09:38:56.717Z,1.50
2023-03-06T09:41:30.154Z,1.70
2023-03-06T09:44:04.974Z,1.56
2023-03-06T09:46:48.747Z,2.07
2023-03-06T09:49:35.461Z,1.57
2023-03-06T09:52:16.382Z,1.79
2023-03-06T09:54:46.561Z,2.14
2023-03-06T09:57:21.164Z,2.64
2023-03-06T09:59:54.424Z,2.81
2023-03-06T10:02:33.001Z,2.91
2023-03-06T10:05:04.281Z,3.02
2023-03-06T10:07:45.681Z,2.99
2023-03-06T10:10:20.858Z,3.32
2023-03-06T10:12:59.397Z,3.23
2023-03-06T10:15:31.561Z,3.11
2023-03-06T10:17:59.969Z,3.65
2023-03-06T10:20:29.881Z,3.56
2023-03-06T10:23:22.169Z,3.84
2023-03-06T10:25:56.291Z,3.80
2023-03-06T10:28:30.481Z,3.76
2023-03-06T10:31:04.028Z,3.46
2023-03-06T10:33:46.804Z,3.57
2023-03-06T10:36:17.947Z,3.44
2023-03-06T10:38:49.563Z,3.44
2023-03-06T10:41:23.749Z,3.00
2023-03-06T10:44:23.650Z,2.86
2023-03-06T10:46:54.427Z,3.05
2023-03-06T10:49:35.166Z,2.91
2023-03-06T10:52:06.979Z,3.22
2023-03-06T10:54:39.117Z,2.79
2023-03-06T10:57:29.559Z,3.20
2023-03-06T10:59:59.888Z,3.28
2023-03-06T11:02:31.744Z,3.50
2023-03-06T11:05:03.454Z,3.00
2023-03-06T11:07:32.689Z,3.03
2023-03-06T11:10:16.763Z,2.94
2023-03-06T11:12:57.190Z,3.30
2023-03-06T11:15:26.559Z,3.84
2023-03-06T11:18:00.578Z,3.96
2023-03-06T11:20:48.554Z,3.97
2023-03-06T11:23:22.976Z,3.36
2023-03-06T11:25:57.765Z,3.32
2023-03-06T11:28:29.051Z,3.46
2023-03-06T11:31:03.615Z,3.94
2023-03-06T11:33:38.220Z,3.39
2023-03-06T11:36:14.966Z,2.88
2023-03-06T11:38:49.107Z,3.05
2023-03-06T11:41:27.252Z,2.85
2023-03-06T11:44:02.214Z,3.04
2023-03-06T11:46:37.657Z,3.21
2023-03-06T11:49:18.803Z,3.34
2023-03-06T11:51:52.832Z,2.84
2023-03-06T11:54:20.922Z,2.78
2023-03-06T11:56:56.347Z,2.76
2023-03-06T11:59:35.586Z,2.82
2023-03-06T12:02:14.367Z,3.03
2023-03-06T12:04:52.840Z,3.15
2023-03-06T12:07:30.645Z,2.93
2023-03-06T12:10:07.194Z,2.40
2023-03-06T12:13:04.113Z,2.19
2023-03-06T12:15:46.926Z,2.14
2023-03-06T12:18:38.948Z,2.12
2023-03-06T12:21:13.870Z,2.29
2023-03-06T12:23:55.002Z,2.55
2023-03-06T12:26:45.239Z,1.97
2023-03-06T12:29:43.701Z,2.44
2023-03-06T12:32:26.736Z,2.27
2023-03-06T12:35:15.408Z,2.65
2023-03-06T12:37:57.916Z,3.03
2023-03-06T12:40:51.686Z,3.28
2023-03-06T12:43:53.326Z,3.26
2023-03-06T12:46:24.155Z,2.93
2023-03-06T12:49:03.902Z,2.67
2023-03-06T12:51:33.462Z,2.48
2023-03-06T12:54:03.164Z,2.29
2023-03-06T12:56:34.085Z,2.54
2023-03-06T12:59:03.116Z,2.60
2023-03-06T13:01:55.362Z,2.64
2023-03-06T13:04:47.940Z,2.26
2023-03-06T13:07:38.867Z,2.26
2023-03-06T13:10:12.151Z,1.82
2023-03-06T13:12:49.884Z,1.61
2023-03-06T13:15:39.287Z,1.57
2023-03-06T13:18:43.714Z,1.47
2023-03-06T13:21:45.072Z,1.39
2023-03-06T13:24:23.246Z,1.58
2023-03-06T13:26:57.763Z,1.62
2023-03-06T13:30:02.796Z,1.59
2023-03-06T13:32:34.747Z,1.54
2023-03-06T13:35:03.409Z,1.52
2023-03-06T13:37:39.427Z,1.49
2023-03-06T13:40:28.675Z,1.39
2023-03-06T13:43:13.924Z,1.42
2023-03-06T13:45:43.859Z,1.89
2023-03-06T13:48:43.006Z,1.86
2023-03-06T13:51:23.968Z,2.09
2023-03-06T13:54:31.939Z,2.21
2023-03-06T13:57:34.113Z,2.71
2023-03-06T14:00:28.019Z,2.27
2023-03-06T14:03:15.658Z,2.31
2023-03-06T14:05:44.861Z,2.29
2023-03-06T14:08:16.453Z,2.23
2023-03-06T14:10:46.141Z,2.08
2023-03-06T14:13:25.499Z,2.12
2023-03-06T14:15:56.470Z,2.18
2023-03-06T14:18:47.913Z,2.09
2023-03-06T14:21:27.740Z,2.11
2023-03-06T14:24:00.671Z,2.15
2023-03-06T14:26:32.989Z,2.22
2023-03-06T14:29:04.139Z,2.21
2023-03-06T14:31:34.690Z,2.28
2023-03-06T14:34:05.217Z,2.23
2023-03-06T14:36:36.972Z,2.24
2023-03-06T14:39:13.820Z,2.13
2023-03-06T14:41:42.184Z,2.02
2023-03-06T14:44:18.054Z,2.02
2023-03-06T14:46:46.793Z,2.05
2023-03-06T14:49:15.939Z,1.85
2023-03-06T14:51:46.446Z,1.82
2023-03-06T14:54:19.643Z,1.77
2023-03-06T14:56:49.768Z,1.84
2023-03-06T14:59:25.914Z,1.76
2023-03-06T15:02:00.545Z,1.67
2023-03-06T15:04:36.664Z,1.56
2023-03-06T15:07:08.580Z,1.55
2023-03-06T15:09:38.958Z,1.47
2023-03-06T15:12:09.226Z,1.38
2023-03-06T15:14:41.968Z,1.23
2023-03-06T15:17:23.720Z,1.08
2023-03-06T15:19:54.569Z,0.99
2023-03-06T15:22:32.414Z,1.05
2023-03-06T15:25:30.250Z,1.05
2023-03-06T15:28:01.264Z,1.00
2023-03-06T15:30:32.527Z,1.06
2023-03-06T15:33:11.383Z,1.04
2023-03-06T15:35:39.860Z,1.08
2023-03-06T15:38:25.468Z,1.12
2023-03-06T15:40:58.468Z,1.24
2023-03-06T15:43:27.205Z,1.26
2023-03-06T15:46:00.055Z,1.13
2023-03-06T15:48:28.970Z,1.05
2023-03-06T15:50:57.190Z,0.93
2023-03-06T15:53:25.477Z,0.98
2023-03-06T15:55:54.261Z,0.87
2023-03-06T15:58:26.758Z,0.71
2023-03-06T16:00:57.386Z,0.69
2023-03-06T16:03:25.788Z,0.66
2023-03-06T16:05:53.819Z,0.61
2023-03-06T16:08:22.090Z,0.62
2023-03-06T16:10:51.505Z,0.55
2023-03-06T16:13:26.779Z,0.54
2023-03-06T16:15:56.977Z,0.44
2023-03-06T16:18:25.824Z,0.37
2023-03-06T16:20:54.151Z,0.34
2023-03-06T16:23:22.820Z,0.31
2023-03-06T16:25:53.394Z,0.26
2023-03-06T16:28:21.707Z,0.18
2023-03-06T16:30:50.091Z,0.16
2023-03-06T16:33:19.788Z,0.11
2023-03-06T16:35:48.359Z,0.07
2023-03-06T16:38:17.615Z,0.04
2023-03-06T16:40:45.848Z,0.00
2023-03-06T16:43:16.261Z,-0.08
2023-03-06T16:45:44.960Z,-0.08
2023-03-06T16:48:17.272Z,-0.13
2023-03-06T16:50:47.368Z,-0.16
2023-03-06T16:53:16.135Z,-0.21
2023-03-06T16:55:44.813Z,-0.23
2023-03-06T16:58:13.447Z,-0.21
2023-03-06T17:00:41.697Z,-0.23
2023-03-06T17:03:10.195Z,-0.26
2023-03-06T17:05:39.363Z,-0.28
2023-03-06T17:08:09.034Z,-0.30
2023-03-06T17:10:39.961Z,-0.31
2023-03-06T17:13:08.618Z,-0.33
2023-03-06T17:15:36.749Z,-0.36
2023-03-06T17:18:05.235Z,-0.35
2023-03-06T17:20:33.456Z,-0.38
2023-03-06T17:23:01.630Z,-0.36
2023-03-06T17:25:31.544Z,-0.33
2023-03-06T17:27:59.603Z,-0.32
2023-03-06T17:30:28.098Z,-0.29
2023-03-06T17:32:57.973Z,-0.28
2023-03-06T17:35:26.002Z,-0.27
2023-03-06T17:37:54.213Z,-0.23
2023-03-06T17:40:49.428Z,-0.24
2023-03-06T17:43:17.635Z,-0.21
2023-03-06T17:45:47.423Z,-0.21
2023-03-06T17:48:15.801Z,-0.18
2023-03-06T17:50:45.922Z,-0.16
2023-03-06T17:53:25.026Z,-0.18
2023-03-06T17:55:54.861Z,-0.18
2023-03-06T17:58:22.964Z,-0.23
2023-03-06T18:00:51.334Z,-0.29
2023-03-06T18:03:19.572Z,-0.40
2023-03-06T18:05:48.003Z,-0.43
2023-03-06T18:08:15.995Z,-0.48
2023-03-06T18:10:44.681Z,-0.53
2023-03-06T18:13:14.141Z,-0.57
2023-03-06T18:15:43.103Z,-0.58
2023-03-06T18:18:11.363Z,-0.58
2023-03-06T18:20:42.210Z,-0.58
2023-03-06T18:23:10.587Z,-0.56
2023-03-06T18:25:38.654Z,-0.58
2023-03-06T18:28:06.838Z,-0.58
2023-03-06T18:30:39.120Z,-0.63
2023-03-06T18:33:07.296Z,-0.64
2023-03-06T18:35:36.080Z,-0.64
2023-03-06T18:38:04.365Z,-0.65
2023-03-06T18:40:32.736Z,-0.66
2023-03-06T18:43:00.712Z,-0.65
2023-03-06T18:45:28.824Z,-0.67
2023-03-06T18:47:58.361Z,-0.69
2023-03-06T18:50:26.379Z,-0.73
2023-03-06T18:52:54.902Z,-0.74
2023-03-06T18:55:23.196Z,-0.74
2023-03-06T18:57:51.474Z,-0.77
2023-03-06T19:00:20.840Z,-0.78
2023-03-06T19:02:49.005Z,-0.78
2023-03-06T19:05:18.637Z,-0.78
2023-03-06T19:07:46.950Z,-0.79
2023-03-06T19:10:15.725Z,-0.81
2023-03-06T19:12:43.789Z,-0.81
2023-03-06T19:15:12.012Z,-0.83
2023-03-06T19:17:40.338Z,-0.84
2023-03-06T19:20:09.742Z,-0.85
2023-03-06T19:22:39.413Z,-0.87
2023-03-06T19:25:09.041Z,-0.87
2023-03-06T19:27:39.575Z,-0.85
2023-03-06T19:30:09.450Z,-0.85
2023-03-06T19:32:37.837Z,-0.87
2023-03-06T19:35:06.979Z,-0.87
2023-03-06T19:37:35.303Z,-0.90
2023-03-06T19:40:04.875Z,-0.86
2023-03-06T19:42:33.112Z,-0.85
2023-03-06T19:45:01.531Z,-0.84
2023-03-06T19:47:29.466Z,-0.82
2023-03-06T19:49:57.712Z,-0.82
2023-03-06T19:52:26.172Z,-0.81
2023-03-06T19:54:54.579Z,-0.78
2023-03-06T19:57:24.004Z,-0.77
2023-03-06T19:59:52.613Z,-0.80
2023-03-06T20:02:26.501Z,-0.78
2023-03-06T20:04:55.535Z,-0.80
2023-03-06T20:07:24.009Z,-0.78
2023-03-06T20:09:52.394Z,-0.79
2023-03-06T20:12:20.423Z,-0.79
2023-03-06T20:14:50.926Z,-0.75
2023-03-06T20:17:18.921Z,-0.75
2023-03-06T20:19:47.579Z,-0.77
2023-03-06T20:22:15.677Z,-0.77
2023-03-06T20:24:43.633Z,-0.77
2023-03-06T20:27:11.933Z,-0.77
2023-03-06T20:29:43.408Z,-0.77
2023-03-06T20:32:14.463Z,-0.76
2023-03-06T20:34:42.640Z,-0.79
2023-03-06T20:37:11.390Z,-0.81
2023-03-06T20:39:39.439Z,-0.82
2023-03-06T20:42:07.461Z,-0.82
2023-03-06T20:44:36.232Z,-0.79
2023-03-06T20:47:04.322Z,-0.76
2023-03-06T20:49:33.878Z,-0.74
2023-03-06T20:52:02.044Z,-0.73
2023-03-06T20:54:30.265Z,-0.75
2023-03-06T20:56:58.323Z,-0.74
2023-03-06T20:59:26.700Z,-0.79
2023-03-06T21:01:54.931Z,-0.79
2023-03-06T21:04:23.201Z,-0.78
2023-03-06T21:06:54.758Z,-0.80
2023-03-06T21:09:23.055Z,-0.84
2023-03-06T21:11:51.951Z,-0.83
2023-03-06T21:14:19.933Z,-0.81
2023-03-06T21:16:47.929Z,-0.81
2023-03-06T21:19:15.958Z,-0.84
2023-03-06T21:21:43.954Z,-0.86
2023-03-06T21:24:13.439Z,-0.90
2023-03-06T21:26:41.503Z,-0.90
2023-03-06T21:29:09.955Z,-0.90
2023-03-06T21:31:38.743Z,-0.93
2023-03-06T21:34:07.060Z,-0.95
2023-03-06T21:36:35.109Z,-0.96
2023-03-06T21:39:06.242Z,-0.98
2023-03-06T21:41:37.978Z,-0.97
2023-03-06T21:44:07.765Z,-0.97
2023-03-06T21:46:36.452Z,-0.95
2023-03-06T21:49:06.001Z,-0.93
2023-03-06T21:51:34.575Z,-0.91
2023-03-06T21:54:03.864Z,-0.95
2023-03-06T21:56:33.403Z,-0.97
2023-03-06T21:59:03.311Z,-0.98
2023-03-06T22:01:31.669Z,-0.97
2023-03-06T22:04:00.964Z,-0.96
2023-03-06T22:06:31.363Z,-1.08
2023-03-06T22:09:00.838Z,-1.13
2023-03-06T22:11:31.418Z,-1.14
2023-03-06T22:13:59.752Z,-1.11
2023-03-06T22:16:29.533Z,-1.09
2023-03-06T22:18:57.741Z,-1.10
2023-03-06T22:21:26.462Z,-1.09
2023-03-06T22:23:57.366Z,-1.12
2023-03-06T22:26:26.847Z,-1.09
2023-03-06T22:28:55.098Z,-1.13
2023-03-06T22:31:24.863Z,-1.07
2023-03-06T22:33:55.522Z,-1.01
2023-03-06T22:36:25.021Z,-0.98
2023-03-06T22:38:56.364Z,-0.98
2023-03-06T22:41:50.212Z,-0.94
2023-03-06T22:44:20.760Z,-0.98
2023-03-06T22:46:48.961Z,-1.02
2023-03-06T22:49:19.117Z,-1.03
2023-03-06T22:51:47.411Z,-1.09
2023-03-06T22:54:15.554Z,-1.22
2023-03-06T22:56:43.623Z,-1.21
2023-03-06T22:59:12.344Z,-1.16
2023-03-06T23:01:40.609Z,-1.09
2023-03-06T23:04:11.447Z,-1.09
2023-03-06T23:06:43.085Z,-1.07
2023-03-06T23:09:16.006Z,-1.01
2023-03-06T23:12:03.206Z,-0.97
2023-03-06T23:14:51.652Z,-1.00
2023-03-06T23:17:38.282Z,-0.89
2023-03-06T23:20:24.876Z,-0.84
2023-03-06T23:23:12.891Z,-0.84
2023-03-06T23:25:43.956Z,-0.85
2023-03-06T23:28:12.530Z,-0.86
2023-03-06T23:30:40.953Z,-0.96
2023-03-06T23:33:09.979Z,-1.02
2023-03-06T23:35:39.747Z,-1.19
2023-03-06T23:38:07.826Z,-1.26
2023-03-06T23:40:39.721Z,-1.32
2023-03-06T23:43:07.754Z,-1.31
2023-03-06T23:45:35.949Z,-1.25
2023-03-06T23:48:06.134Z,-1.34
2023-03-06T23:50:34.232Z,-1.36
2023-03-06T23:53:02.324Z,-1.45
2023-03-06T23:55:30.242Z,-1.49
2023-03-06T23:57:59.611Z,-1.43
